sensor_id;sensor_type;location;lat;lon;timestamp;P1;P2;P0
33264;PMS5003;31404;53.974;-1.086;2022-10-16T00:00:36;2;2;
33264;PMS5003;31404;53.974;-1.086;2022-10-16T00:05:38;2;1;
33264;PMS5003;31404;53.974;-1.086;2022-10-16T00:10:38;1;1;
33264;PMS5003;31404;53.974;-1.086;2022-10-16T00:15:35;1;1;
33264;PMS5003;31404;53.974;-1.086;2022-10-16T00:20:36;2;0;
33264;PMS5003;31404;53.974;-1.086;2022-10-16T00:25:35;2;1;
33264;PMS5003;31404;53.974;-1.086;2022-10-16T00:30:37;0;0;
33264;PMS5003;31404;53.974;-1.086;2022-10-16T00:35:35;3;1;
33264;PMS5003;31404;53.974;-1.086;2022-10-16T00:40:34;3;2;
33264;PMS5003;31404;53.974;-1.086;2022-10-16T00:45:34;1;1;
33264;PMS5003;31404;53.974;-1.086;2022-10-16T00:50:36;1;1;
33264;PMS5003;31404;53.974;-1.086;2022-10-16T00:55:34;2;2;
33264;PMS5003;31404;53.974;-1.086;2022-10-16T01:00:34;1;1;
33264;PMS5003;31404;53.974;-1.086;2022-10-16T01:05:39;3;1;
33264;PMS5003;31404;53.974;-1.086;2022-10-16T01:10:38;3;1;
33264;PMS5003;31404;53.974;-1.086;2022-10-16T01:15:35;2;1;
33264;PMS5003;31404;53.974;-1.086;2022-10-16T01:20:35;1;1;
33264;PMS5003;31404;53.974;-1.086;2022-10-16T01:25:39;1;1;
33264;PMS5003;31404;53.974;-1.086;2022-10-16T01:30:34;3;3;
33264;PMS5003;31404;53.974;-1.086;2022-10-16T01:35:35;3;3;
33264;PMS5003;31404;53.974;-1.086;2022-10-16T01:40:36;3;1;
33264;PMS5003;31404;53.974;-1.086;2022-10-16T01:45:39;1;1;
33264;PMS5003;31404;53.974;-1.086;2022-10-16T01:50:35;2;2;
33264;PMS5003;31404;53.974;-1.086;2022-10-16T01:55:37;2;0;
33264;PMS5003;31404;53.974;-1.086;2022-10-16T02:00:36;5;3;
33264;PMS5003;31404;53.974;-1.086;2022-10-16T02:05:36;2;2;
33264;PMS5003;31404;53.974;-1.086;2022-10-16T02:10:34;3;1;
33264;PMS5003;31404;53.974;-1.086;2022-10-16T02:15:35;5;2;
33264;PMS5003;31404;53.974;-1.086;2022-10-16T02:20:36;2;2;
33264;PMS5003;31404;53.974;-1.086;2022-10-16T02:25:35;1;1;
33264;PMS5003;31404;53.974;-1.086;2022-10-16T02:30:35;1;1;
33264;PMS5003;31404;53.974;-1.086;2022-10-16T02:35:34;2;2;
33264;PMS5003;31404;53.974;-1.086;2022-10-16T02:40:34;2;2;
33264;PMS5003;31404;53.974;-1.086;2022-10-16T02:45:36;5;1;
33264;PMS5003;31404;53.974;-1.086;2022-10-16T02:50:35;1;1;
33264;PMS5003;31404;53.974;-1.086;2022-10-16T02:55:35;2;2;
33264;PMS5003;31404;53.974;-1.086;2022-10-16T03:00:35;2;2;
33264;PMS5003;31404;53.974;-1.086;2022-10-16T03:05:36;4;3;
33264;PMS5003;31404;53.974;-1.086;2022-10-16T03:10:33;3;2;
33264;PMS5003;31404;53.974;-1.086;2022-10-16T03:15:34;3;1;
33264;PMS5003;31404;53.974;-1.086;2022-10-16T03:20:35;5;1;
33264;PMS5003;31404;53.974;-1.086;2022-10-16T03:25:34;2;2;
33264;PMS5003;31404;53.974;-1.086;2022-10-16T03:30:36;3;1;
33264;PMS5003;31404;53.974;-1.086;2022-10-16T03:35:36;1;1;
33264;PMS5003;31404;53.974;-1.086;2022-10-16T03:40:35;5;2;
33264;PMS5003;31404;53.974;-1.086;2022-10-16T03:45:35;1;1;
33264;PMS5003;31404;53.974;-1.086;2022-10-16T03:50:37;3;2;
33264;PMS5003;31404;53.974;-1.086;2022-10-16T03:55:37;4;3;
33264;PMS5003;31404;53.974;-1.086;2022-10-16T04:00:39;3;2;
33264;PMS5003;31404;53.974;-1.086;2022-10-16T04:05:36;4;2;
33264;PMS5003;31404;53.974;-1.086;2022-10-16T04:10:36;2;2;
33264;PMS5003;31404;53.974;-1.086;2022-10-16T04:15:34;1;1;
33264;PMS5003;31404;53.974;-1.086;2022-10-16T04:20:36;0;0;
33264;PMS5003;31404;53.974;-1.086;2022-10-16T04:25:36;2;0;
33264;PMS5003;31404;53.974;-1.086;2022-10-16T04:30:37;3;2;
33264;PMS5003;31404;53.974;-1.086;2022-10-16T04:35:36;1;1;
33264;PMS5003;31404;53.974;-1.086;2022-10-16T04:40:36;1;1;
33264;PMS5003;31404;53.974;-1.086;2022-10-16T04:45:35;2;2;
33264;PMS5003;31404;53.974;-1.086;2022-10-16T04:50:36;2;1;
33264;PMS5003;31404;53.974;-1.086;2022-10-16T04:55:34;4;2;
33264;PMS5003;31404;53.974;-1.086;2022-10-16T05:00:34;2;2;
33264;PMS5003;31404;53.974;-1.086;2022-10-16T05:05:34;3;1;
33264;PMS5003;31404;53.974;-1.086;2022-10-16T05:10:34;2;2;
33264;PMS5003;31404;53.974;-1.086;2022-10-16T05:15:35;2;0;
33264;PMS5003;31404;53.974;-1.086;2022-10-16T05:20:36;3;0;
33264;PMS5003;31404;53.974;-1.086;2022-10-16T05:25:37;1;1;
33264;PMS5003;31404;53.974;-1.086;2022-10-16T05:30:36;0;0;
33264;PMS5003;31404;53.974;-1.086;2022-10-16T05:35:35;1;1;
33264;PMS5003;31404;53.974;-1.086;2022-10-16T05:40:35;3;1;
33264;PMS5003;31404;53.974;-1.086;2022-10-16T05:45:37;3;1;
33264;PMS5003;31404;53.974;-1.086;2022-10-16T05:50:34;1;1;
33264;PMS5003;31404;53.974;-1.086;2022-10-16T05:55:36;3;2;
33264;PMS5003;31404;53.974;-1.086;2022-10-16T06:00:35;3;2;
33264;PMS5003;31404;53.974;-1.086;2022-10-16T06:05:34;1;1;
33264;PMS5003;31404;53.974;-1.086;2022-10-16T06:10:35;0;0;
33264;PMS5003;31404;53.974;-1.086;2022-10-16T06:15:35;1;1;
33264;PMS5003;31404;53.974;-1.086;2022-10-16T06:20:37;2;0;
33264;PMS5003;31404;53.974;-1.086;2022-10-16T06:25:35;3;1;
33264;PMS5003;31404;53.974;-1.086;2022-10-16T06:30:34;0;0;
33264;PMS5003;31404;53.974;-1.086;2022-10-16T06:35:37;1;1;
33264;PMS5003;31404;53.974;-1.086;2022-10-16T06:40:37;5;1;
33264;PMS5003;31404;53.974;-1.086;2022-10-16T06:45:36;0;0;
33264;PMS5003;31404;53.974;-1.086;2022-10-16T06:50:34;1;1;
33264;PMS5003;31404;53.974;-1.086;2022-10-16T06:55:34;2;1;
33264;PMS5003;31404;53.974;-1.086;2022-10-16T07:00:34;2;0;
33264;PMS5003;31404;53.974;-1.086;2022-10-16T07:05:37;0;0;
33264;PMS5003;31404;53.974;-1.086;2022-10-16T07:10:38;2;2;
33264;PMS5003;31404;53.974;-1.086;2022-10-16T07:15:38;2;1;
33264;PMS5003;31404;53.974;-1.086;2022-10-16T07:20:34;1;1;
33264;PMS5003;31404;53.974;-1.086;2022-10-16T07:25:36;1;1;
33264;PMS5003;31404;53.974;-1.086;2022-10-16T07:30:35;0;0;
33264;PMS5003;31404;53.974;-1.086;2022-10-16T07:35:36;3;2;
33264;PMS5003;31404;53.974;-1.086;2022-10-16T07:40:34;3;2;
33264;PMS5003;31404;53.974;-1.086;2022-10-16T07:45:35;2;2;
33264;PMS5003;31404;53.974;-1.086;2022-10-16T07:50:34;0;0;
33264;PMS5003;31404;53.974;-1.086;2022-10-16T07:55:35;3;2;
33264;PMS5003;31404;53.974;-1.086;2022-10-16T08:00:35;1;1;
33264;PMS5003;31404;53.974;-1.086;2022-10-16T08:05:35;1;1;
33264;PMS5003;31404;53.974;-1.086;2022-10-16T08:10:34;2;1;
33264;PMS5003;31404;53.974;-1.086;2022-10-16T08:15:34;0;0;
33264;PMS5003;31404;53.974;-1.086;2022-10-16T08:20:34;0;0;
33264;PMS5003;31404;53.974;-1.086;2022-10-16T08:25:34;1;1;
33264;PMS5003;31404;53.974;-1.086;2022-10-16T08:30:36;3;0;
33264;PMS5003;31404;53.974;-1.086;2022-10-16T08:35:34;1;1;
33264;PMS5003;31404;53.974;-1.086;2022-10-16T08:40:35;1;1;
33264;PMS5003;31404;53.974;-1.086;2022-10-16T08:45:36;0;0;
33264;PMS5003;31404;53.974;-1.086;2022-10-16T08:50:35;0;0;
33264;PMS5003;31404;53.974;-1.086;2022-10-16T08:55:37;4;1;
33264;PMS5003;31404;53.974;-1.086;2022-10-16T09:00:34;3;1;
33264;PMS5003;31404;53.974;-1.086;2022-10-16T09:10:37;4;1;
33264;PMS5003;31404;53.974;-1.086;2022-10-16T09:15:34;1;0;
33264;PMS5003;31404;53.974;-1.086;2022-10-16T09:20:35;5;1;
33264;PMS5003;31404;53.974;-1.086;2022-10-16T09:25:34;4;2;
33264;PMS5003;31404;53.974;-1.086;2022-10-16T09:30:35;1;0;
33264;PMS5003;31404;53.974;-1.086;2022-10-16T09:35:36;2;0;
33264;PMS5003;31404;53.974;-1.086;2022-10-16T09:40:34;3;1;
33264;PMS5003;31404;53.974;-1.086;2022-10-16T09:45:34;1;1;
33264;PMS5003;31404;53.974;-1.086;2022-10-16T09:50:37;1;1;
33264;PMS5003;31404;53.974;-1.086;2022-10-16T09:55:34;5;3;
33264;PMS5003;31404;53.974;-1.086;2022-10-16T10:00:36;2;2;
33264;PMS5003;31404;53.974;-1.086;2022-10-16T10:05:37;1;1;
33264;PMS5003;31404;53.974;-1.086;2022-10-16T10:10:37;1;1;
33264;PMS5003;31404;53.974;-1.086;2022-10-16T10:15:41;0;0;
33264;PMS5003;31404;53.974;-1.086;2022-10-16T10:20:35;0;0;
33264;PMS5003;31404;53.974;-1.086;2022-10-16T10:25:37;1;1;
33264;PMS5003;31404;53.974;-1.086;2022-10-16T10:30:36;1;1;
33264;PMS5003;31404;53.974;-1.086;2022-10-16T10:35:37;1;1;
33264;PMS5003;31404;53.974;-1.086;2022-10-16T10:45:37;2;1;
33264;PMS5003;31404;53.974;-1.086;2022-10-16T10:50:38;3;0;
33264;PMS5003;31404;53.974;-1.086;2022-10-16T10:55:37;3;1;
33264;PMS5003;31404;53.974;-1.086;2022-10-16T11:00:36;2;2;
33264;PMS5003;31404;53.974;-1.086;2022-10-16T11:05:39;1;1;
33264;PMS5003;31404;53.974;-1.086;2022-10-16T11:10:37;2;2;
33264;PMS5003;31404;53.974;-1.086;2022-10-16T11:15:37;1;1;
33264;PMS5003;31404;53.974;-1.086;2022-10-16T11:20:34;6;1;
33264;PMS5003;31404;53.974;-1.086;2022-10-16T11:25:34;4;2;
33264;PMS5003;31404;53.974;-1.086;2022-10-16T11:30:40;0;0;
33264;PMS5003;31404;53.974;-1.086;2022-10-16T11:35:38;1;1;
33264;PMS5003;31404;53.974;-1.086;2022-10-16T11:40:34;2;1;
33264;PMS5003;31404;53.974;-1.086;2022-10-16T11:45:34;2;1;
33264;PMS5003;31404;53.974;-1.086;2022-10-16T11:50:36;0;0;
33264;PMS5003;31404;53.974;-1.086;2022-10-16T11:55:34;0;0;
33264;PMS5003;31404;53.974;-1.086;2022-10-16T12:00:35;1;1;
33264;PMS5003;31404;53.974;-1.086;2022-10-16T12:05:35;2;0;
33264;PMS5003;31404;53.974;-1.086;2022-10-16T12:10:34;2;2;
33264;PMS5003;31404;53.974;-1.086;2022-10-16T12:15:34;5;2;
33264;PMS5003;31404;53.974;-1.086;2022-10-16T12:20:36;3;3;
33264;PMS5003;31404;53.974;-1.086;2022-10-16T12:25:37;4;3;
33264;PMS5003;31404;53.974;-1.086;2022-10-16T12:30:35;5;4;
33264;PMS5003;31404;53.974;-1.086;2022-10-16T12:35:35;6;2;
33264;PMS5003;31404;53.974;-1.086;2022-10-16T12:40:35;1;1;
33264;PMS5003;31404;53.974;-1.086;2022-10-16T12:45:37;2;2;
33264;PMS5003;31404;53.974;-1.086;2022-10-16T12:50:38;3;3;
33264;PMS5003;31404;53.974;-1.086;2022-10-16T13:00:39;0;0;
33264;PMS5003;31404;53.974;-1.086;2022-10-16T13:10:36;6;3;
33264;PMS5003;31404;53.974;-1.086;2022-10-16T13:20:46;2;2;
33264;PMS5003;31404;53.974;-1.086;2022-10-16T13:25:37;2;2;
33264;PMS5003;31404;53.974;-1.086;2022-10-16T13:30:37;2;2;
33264;PMS5003;31404;53.974;-1.086;2022-10-16T13:35:36;2;2;
33264;PMS5003;31404;53.974;-1.086;2022-10-16T13:40:35;2;1;
33264;PMS5003;31404;53.974;-1.086;2022-10-16T13:45:35;2;2;
33264;PMS5003;31404;53.974;-1.086;2022-10-16T13:50:36;3;3;
33264;PMS5003;31404;53.974;-1.086;2022-10-16T13:55:35;4;2;
33264;PMS5003;31404;53.974;-1.086;2022-10-16T14:00:34;8;4;
33264;PMS5003;31404;53.974;-1.086;2022-10-16T14:05:34;6;6;
33264;PMS5003;31404;53.974;-1.086;2022-10-16T14:10:35;4;4;
33264;PMS5003;31404;53.974;-1.086;2022-10-16T14:15:35;4;3;
33264;PMS5003;31404;53.974;-1.086;2022-10-16T14:20:35;6;6;
33264;PMS5003;31404;53.974;-1.086;2022-10-16T14:25:34;2;2;
33264;PMS5003;31404;53.974;-1.086;2022-10-16T14:30:35;3;3;
33264;PMS5003;31404;53.974;-1.086;2022-10-16T14:35:38;4;4;
33264;PMS5003;31404;53.974;-1.086;2022-10-16T14:40:36;5;4;
33264;PMS5003;31404;53.974;-1.086;2022-10-16T14:45:34;2;2;
33264;PMS5003;31404;53.974;-1.086;2022-10-16T14:50:36;3;3;
33264;PMS5003;31404;53.974;-1.086;2022-10-16T14:55:36;4;2;
33264;PMS5003;31404;53.974;-1.086;2022-10-16T15:00:34;3;2;
33264;PMS5003;31404;53.974;-1.086;2022-10-16T15:05:34;3;3;
33264;PMS5003;31404;53.974;-1.086;2022-10-16T15:10:38;4;2;
33264;PMS5003;31404;53.974;-1.086;2022-10-16T15:15:36;12;9;
33264;PMS5003;31404;53.974;-1.086;2022-10-16T15:20:38;4;1;
33264;PMS5003;31404;53.974;-1.086;2022-10-16T15:25:35;2;2;
33264;PMS5003;31404;53.974;-1.086;2022-10-16T15:30:36;2;2;
33264;PMS5003;31404;53.974;-1.086;2022-10-16T15:35:34;3;2;
33264;PMS5003;31404;53.974;-1.086;2022-10-16T15:40:34;2;2;
33264;PMS5003;31404;53.974;-1.086;2022-10-16T15:45:36;2;2;
33264;PMS5003;31404;53.974;-1.086;2022-10-16T15:50:34;2;2;
33264;PMS5003;31404;53.974;-1.086;2022-10-16T15:55:35;11;7;
33264;PMS5003;31404;53.974;-1.086;2022-10-16T16:00:34;3;1;
33264;PMS5003;31404;53.974;-1.086;2022-10-16T16:05:37;6;3;
33264;PMS5003;31404;53.974;-1.086;2022-10-16T16:10:34;13;8;
33264;PMS5003;31404;53.974;-1.086;2022-10-16T16:15:34;10;8;
33264;PMS5003;31404;53.974;-1.086;2022-10-16T16:20:34;7;7;
33264;PMS5003;31404;53.974;-1.086;2022-10-16T16:25:34;6;6;
33264;PMS5003;31404;53.974;-1.086;2022-10-16T16:30:35;7;6;
33264;PMS5003;31404;53.974;-1.086;2022-10-16T16:35:34;6;6;
33264;PMS5003;31404;53.974;-1.086;2022-10-16T16:40:34;8;8;
33264;PMS5003;31404;53.974;-1.086;2022-10-16T16:45:35;13;13;
33264;PMS5003;31404;53.974;-1.086;2022-10-16T16:50:35;8;5;
33264;PMS5003;31404;53.974;-1.086;2022-10-16T16:55:34;7;6;
33264;PMS5003;31404;53.974;-1.086;2022-10-16T17:00:34;6;6;
33264;PMS5003;31404;53.974;-1.086;2022-10-16T17:05:34;11;9;
33264;PMS5003;31404;53.974;-1.086;2022-10-16T17:15:34;12;12;
33264;PMS5003;31404;53.974;-1.086;2022-10-16T17:20:35;11;8;
33264;PMS5003;31404;53.974;-1.086;2022-10-16T17:25:39;11;11;
33264;PMS5003;31404;53.974;-1.086;2022-10-16T17:30:36;8;8;
33264;PMS5003;31404;53.974;-1.086;2022-10-16T17:35:35;12;10;
33264;PMS5003;31404;53.974;-1.086;2022-10-16T17:40:34;11;9;
33264;PMS5003;31404;53.974;-1.086;2022-10-16T17:45:36;12;11;
33264;PMS5003;31404;53.974;-1.086;2022-10-16T17:50:39;13;12;
33264;PMS5003;31404;53.974;-1.086;2022-10-16T17:55:38;11;11;
33264;PMS5003;31404;53.974;-1.086;2022-10-16T18:05:36;7;7;
33264;PMS5003;31404;53.974;-1.086;2022-10-16T18:10:36;7;6;
33264;PMS5003;31404;53.974;-1.086;2022-10-16T18:15:34;10;9;
33264;PMS5003;31404;53.974;-1.086;2022-10-16T18:20:36;6;6;
33264;PMS5003;31404;53.974;-1.086;2022-10-16T18:25:35;23;18;
33264;PMS5003;31404;53.974;-1.086;2022-10-16T18:30:34;5;5;
33264;PMS5003;31404;53.974;-1.086;2022-10-16T18:35:36;5;5;
33264;PMS5003;31404;53.974;-1.086;2022-10-16T18:40:38;6;6;
33264;PMS5003;31404;53.974;-1.086;2022-10-16T18:45:37;7;6;
33264;PMS5003;31404;53.974;-1.086;2022-10-16T18:50:35;7;6;
33264;PMS5003;31404;53.974;-1.086;2022-10-16T18:55:38;9;9;
33264;PMS5003;31404;53.974;-1.086;2022-10-16T19:00:35;7;6;
33264;PMS5003;31404;53.974;-1.086;2022-10-16T19:05:34;7;7;
33264;PMS5003;31404;53.974;-1.086;2022-10-16T19:10:35;5;4;
33264;PMS5003;31404;53.974;-1.086;2022-10-16T19:20:35;6;6;
33264;PMS5003;31404;53.974;-1.086;2022-10-16T19:25:35;4;4;
33264;PMS5003;31404;53.974;-1.086;2022-10-16T19:30:35;6;6;
33264;PMS5003;31404;53.974;-1.086;2022-10-16T19:35:38;7;6;
33264;PMS5003;31404;53.974;-1.086;2022-10-16T19:40:34;14;12;
33264;PMS5003;31404;53.974;-1.086;2022-10-16T19:45:37;5;5;
33264;PMS5003;31404;53.974;-1.086;2022-10-16T19:50:36;7;6;
33264;PMS5003;31404;53.974;-1.086;2022-10-16T19:55:34;5;5;
33264;PMS5003;31404;53.974;-1.086;2022-10-16T20:00:34;7;5;
33264;PMS5003;31404;53.974;-1.086;2022-10-16T20:05:35;6;4;
33264;PMS5003;31404;53.974;-1.086;2022-10-16T20:10:37;3;1;
33264;PMS5003;31404;53.974;-1.086;2022-10-16T20:15:35;6;6;
33264;PMS5003;31404;53.974;-1.086;2022-10-16T20:20:35;7;6;
33264;PMS5003;31404;53.974;-1.086;2022-10-16T20:25:38;5;5;
33264;PMS5003;31404;53.974;-1.086;2022-10-16T20:30:37;5;5;
33264;PMS5003;31404;53.974;-1.086;2022-10-16T20:35:34;8;6;
33264;PMS5003;31404;53.974;-1.086;2022-10-16T20:40:38;7;6;
33264;PMS5003;31404;53.974;-1.086;2022-10-16T20:45:37;2;2;
33264;PMS5003;31404;53.974;-1.086;2022-10-16T20:50:38;3;3;
33264;PMS5003;31404;53.974;-1.086;2022-10-16T20:55:38;6;6;
33264;PMS5003;31404;53.974;-1.086;2022-10-16T21:00:34;4;4;
33264;PMS5003;31404;53.974;-1.086;2022-10-16T21:05:38;6;4;
33264;PMS5003;31404;53.974;-1.086;2022-10-16T21:10:34;2;2;
33264;PMS5003;31404;53.974;-1.086;2022-10-16T21:25:38;4;3;
33264;PMS5003;31404;53.974;-1.086;2022-10-16T21:30:36;3;2;
33264;PMS5003;31404;53.974;-1.086;2022-10-16T21:35:34;3;3;
33264;PMS5003;31404;53.974;-1.086;2022-10-16T21:40:37;3;3;
33264;PMS5003;31404;53.974;-1.086;2022-10-16T21:45:36;4;2;
33264;PMS5003;31404;53.974;-1.086;2022-10-16T21:50:35;7;4;
33264;PMS5003;31404;53.974;-1.086;2022-10-16T21:55:37;3;3;
33264;PMS5003;31404;53.974;-1.086;2022-10-16T22:00:35;4;2;
33264;PMS5003;31404;53.974;-1.086;2022-10-16T22:05:35;4;4;
33264;PMS5003;31404;53.974;-1.086;2022-10-16T22:10:34;4;3;
33264;PMS5003;31404;53.974;-1.086;2022-10-16T22:15:36;2;2;
33264;PMS5003;31404;53.974;-1.086;2022-10-16T22:20:36;4;3;
33264;PMS5003;31404;53.974;-1.086;2022-10-16T22:25:35;4;4;
33264;PMS5003;31404;53.974;-1.086;2022-10-16T22:30:35;2;2;
33264;PMS5003;31404;53.974;-1.086;2022-10-16T22:35:35;4;2;
33264;PMS5003;31404;53.974;-1.086;2022-10-16T22:40:36;3;3;
33264;PMS5003;31404;53.974;-1.086;2022-10-16T22:45:35;5;3;
33264;PMS5003;31404;53.974;-1.086;2022-10-16T22:50:34;2;2;
33264;PMS5003;31404;53.974;-1.086;2022-10-16T22:55:36;1;1;
33264;PMS5003;31404;53.974;-1.086;2022-10-16T23:00:35;5;5;
33264;PMS5003;31404;53.974;-1.086;2022-10-16T23:05:37;9;3;
33264;PMS5003;31404;53.974;-1.086;2022-10-16T23:10:37;5;3;
33264;PMS5003;31404;53.974;-1.086;2022-10-16T23:15:37;4;2;
33264;PMS5003;31404;53.974;-1.086;2022-10-16T23:20:34;3;3;
33264;PMS5003;31404;53.974;-1.086;2022-10-16T23:25:35;9;5;
33264;PMS5003;31404;53.974;-1.086;2022-10-16T23:30:33;5;5;
33264;PMS5003;31404;53.974;-1.086;2022-10-16T23:35:37;7;5;
33264;PMS5003;31404;53.974;-1.086;2022-10-16T23:40:37;4;4;
33264;PMS5003;31404;53.974;-1.086;2022-10-16T23:45:35;5;5;
33264;PMS5003;31404;53.974;-1.086;2022-10-16T23:50:36;4;4;
33264;PMS5003;31404;53.974;-1.086;2022-10-16T23:55:37;6;6;
